sensor_id;sensor_type;location;lat;lon;timestamp;temperature;humidity
55016;DHT22;40919;43.236;21.590;2023-05-07T18:19:24;563.60;2201.60
55016;DHT22;40919;43.236;21.590;2023-05-07T18:30:22;538.50;2201.60
55016;DHT22;40919;43.236;21.590;2023-05-07T18:32:54;538.50;2227.20
55016;DHT22;40919;43.236;21.590;2023-05-07T18:35:58;538.30;2252.80
55016;DHT22;40919;43.236;21.590;2023-05-07T18:38:45;538.10;2278.40
55016;DHT22;40919;43.236;21.590;2023-05-07T18:41:15;538.20;2304.00
55016;DHT22;40919;43.236;21.590;2023-05-07T18:44:01;538.10;2278.40
55016;DHT22;40919;43.236;21.590;2023-05-07T18:47:21;538.20;2278.40
55016;DHT22;40919;43.236;21.590;2023-05-07T18:50:25;538.10;2278.40
55016;DHT22;40919;43.236;21.590;2023-05-07T18:53:51;538.00;2304.00
55016;DHT22;40919;43.236;21.590;2023-05-07T18:57:02;537.80;2304.00
55016;DHT22;40919;43.236;21.590;2023-05-07T19:14:02;512.70;2278.40
55016;DHT22;40919;43.236;21.590;2023-05-07T19:17:38;512.70;2278.40
55016;DHT22;40919;43.236;21.590;2023-05-07T19:26:52;512.60;2329.60
55016;DHT22;40919;43.236;21.590;2023-05-07T19:30:09;512.50;2329.60
55016;DHT22;40919;43.236;21.590;2023-05-07T19:33:01;512.20;2355.20
55016;DHT22;40919;43.236;21.590;2023-05-07T19:36:06;512.00;2380.80
55016;DHT22;40919;43.236;21.590;2023-05-07T19:39:00;512.00;2380.80
55016;DHT22;40919;43.236;21.590;2023-05-07T19:42:25;487.30;2380.80
55016;DHT22;40919;43.236;21.590;2023-05-07T19:45:43;512.00;2380.80
55016;DHT22;40919;43.236;21.590;2023-05-07T19:48:49;487.30;2380.80
55016;DHT22;40919;43.236;21.590;2023-05-07T19:52:31;487.10;2380.80
55016;DHT22;40919;43.236;21.590;2023-05-07T19:55:49;487.10;2380.80
55016;DHT22;40919;43.236;21.590;2023-05-07T19:59:03;487.00;2380.80
55016;DHT22;40919;43.236;21.590;2023-05-07T20:02:09;486.90;2380.80
55016;DHT22;40919;43.236;21.590;2023-05-07T20:05:28;487.00;2380.80
55016;DHT22;40919;43.236;21.590;2023-05-07T20:12:07;486.90;2380.80
55016;DHT22;40919;43.236;21.590;2023-05-07T20:15:13;486.80;2380.80
55016;DHT22;40919;43.236;21.590;2023-05-07T20:22:05;486.70;2380.80
55016;DHT22;40919;43.236;21.590;2023-05-07T20:28:19;486.60;2380.80
55016;DHT22;40919;43.236;21.590;2023-05-07T20:31:36;486.50;2380.80
55016;DHT22;40919;43.236;21.590;2023-05-07T20:41:38;461.60;2380.80
55016;DHT22;40919;43.236;21.590;2023-05-07T20:44:56;461.60;2380.80
55016;DHT22;40919;43.236;21.590;2023-05-07T20:48:35;461.70;2380.80
55016;DHT22;40919;43.236;21.590;2023-05-07T20:51:19;461.60;2380.80
55016;DHT22;40919;43.236;21.590;2023-05-07T20:54:13;461.40;2380.80
55016;DHT22;40919;43.236;21.590;2023-05-07T20:57:18;461.40;2380.80
55016;DHT22;40919;43.236;21.590;2023-05-07T21:00:59;461.40;2380.80
55016;DHT22;40919;43.236;21.590;2023-05-07T21:07:39;461.10;2380.80
55016;DHT22;40919;43.236;21.590;2023-05-07T21:10:27;461.10;2380.80
55016;DHT22;40919;43.236;21.590;2023-05-07T21:13:26;461.10;2380.80
55016;DHT22;40919;43.236;21.590;2023-05-07T21:16:33;461.00;2380.80
55016;DHT22;40919;43.236;21.590;2023-05-07T21:19:28;461.10;2380.80
55016;DHT22;40919;43.236;21.590;2023-05-07T21:22:41;461.20;2380.80
55016;DHT22;40919;43.236;21.590;2023-05-07T21:25:20;461.20;2380.80
55016;DHT22;40919;43.236;21.590;2023-05-07T21:28:22;461.00;2380.80
55016;DHT22;40919;43.236;21.590;2023-05-07T21:31:12;460.90;2380.80
55016;DHT22;40919;43.236;21.590;2023-05-07T21:34:07;436.10;2355.20
55016;DHT22;40919;43.236;21.590;2023-05-07T21:37:08;436.10;2355.20
55016;DHT22;40919;43.236;21.590;2023-05-07T21:39:34;436.10;2355.20
55016;DHT22;40919;43.236;21.590;2023-05-07T21:42:15;436.10;2355.20
55016;DHT22;40919;43.236;21.590;2023-05-07T21:44:41;460.90;2380.80
55016;DHT22;40919;43.236;21.590;2023-05-07T21:47:07;461.40;2380.80
55016;DHT22;40919;43.236;21.590;2023-05-07T21:49:33;460.80;2380.80
55016;DHT22;40919;43.236;21.590;2023-05-07T21:52:27;460.90;2380.80
55016;DHT22;40919;43.236;21.590;2023-05-07T21:54:55;460.90;2380.80
55016;DHT22;40919;43.236;21.590;2023-05-07T21:57:22;460.90;2380.80
55016;DHT22;40919;43.236;21.590;2023-05-07T21:59:48;435.80;2355.20
55016;DHT22;40919;43.236;21.590;2023-05-07T22:02:14;436.00;2355.20
55016;DHT22;40919;43.236;21.590;2023-05-07T22:04:41;436.10;2355.20
55016;DHT22;40919;43.236;21.590;2023-05-07T22:07:08;435.90;2355.20
55016;DHT22;40919;43.236;21.590;2023-05-07T22:09:34;435.80;2355.20
55016;DHT22;40919;43.236;21.590;2023-05-07T22:12:00;435.80;2355.20
55016;DHT22;40919;43.236;21.590;2023-05-07T22:14:26;435.20;2355.20
55016;DHT22;40919;43.236;21.590;2023-05-07T22:16:52;435.60;2355.20
55016;DHT22;40919;43.236;21.590;2023-05-07T22:19:19;435.70;2355.20
55016;DHT22;40919;43.236;21.590;2023-05-07T22:21:45;435.70;2355.20
55016;DHT22;40919;43.236;21.590;2023-05-07T22:24:11;435.50;2355.20
55016;DHT22;40919;43.236;21.590;2023-05-07T22:26:37;436.00;2355.20
55016;DHT22;40919;43.236;21.590;2023-05-07T22:29:05;435.60;2355.20
55016;DHT22;40919;43.236;21.590;2023-05-07T22:31:32;435.60;2355.20
55016;DHT22;40919;43.236;21.590;2023-05-07T22:34:00;460.80;2380.80
55016;DHT22;40919;43.236;21.590;2023-05-07T22:36:27;435.40;2355.20
55016;DHT22;40919;43.236;21.590;2023-05-07T22:38:54;435.50;2355.20
55016;DHT22;40919;43.236;21.590;2023-05-07T22:41:20;410.50;2355.20
55016;DHT22;40919;43.236;21.590;2023-05-07T22:43:47;435.50;2355.20
55016;DHT22;40919;43.236;21.590;2023-05-07T22:46:13;435.50;2355.20
55016;DHT22;40919;43.236;21.590;2023-05-07T22:48:41;435.50;2355.20
55016;DHT22;40919;43.236;21.590;2023-05-07T22:51:17;435.30;2355.20
55016;DHT22;40919;43.236;21.590;2023-05-07T22:53:45;435.30;2355.20
55016;DHT22;40919;43.236;21.590;2023-05-07T22:56:12;410.30;2355.20
55016;DHT22;40919;43.236;21.590;2023-05-07T22:58:39;410.20;2355.20
55016;DHT22;40919;43.236;21.590;2023-05-07T23:01:11;410.30;2355.20
55016;DHT22;40919;43.236;21.590;2023-05-07T23:03:38;410.30;2355.20
55016;DHT22;40919;43.236;21.590;2023-05-07T23:06:04;410.40;2355.20
55016;DHT22;40919;43.236;21.590;2023-05-07T23:08:31;410.50;2355.20
55016;DHT22;40919;43.236;21.590;2023-05-07T23:10:57;410.50;2355.20
55016;DHT22;40919;43.236;21.590;2023-05-07T23:13:23;460.80;2380.80
55016;DHT22;40919;43.236;21.590;2023-05-07T23:15:51;410.30;2355.20
55016;DHT22;40919;43.236;21.590;2023-05-07T23:18:47;410.50;2355.20
55016;DHT22;40919;43.236;21.590;2023-05-07T23:21:18;410.40;2355.20
55016;DHT22;40919;43.236;21.590;2023-05-07T23:23:45;410.50;2355.20
55016;DHT22;40919;43.236;21.590;2023-05-07T23:26:14;410.50;2355.20
55016;DHT22;40919;43.236;21.590;2023-05-07T23:28:40;410.30;2355.20
55016;DHT22;40919;43.236;21.590;2023-05-07T23:31:07;410.20;2355.20
55016;DHT22;40919;43.236;21.590;2023-05-07T23:33:34;410.00;2355.20
55016;DHT22;40919;43.236;21.590;2023-05-07T23:36:01;410.00;2355.20
55016;DHT22;40919;43.236;21.590;2023-05-07T23:38:27;410.20;2355.20
55016;DHT22;40919;43.236;21.590;2023-05-07T23:40:54;410.30;2355.20
55016;DHT22;40919;43.236;21.590;2023-05-07T23:43:20;410.40;2355.20
55016;DHT22;40919;43.236;21.590;2023-05-07T23:45:47;384.90;2329.60
55016;DHT22;40919;43.236;21.590;2023-05-07T23:48:13;410.40;2355.20
55016;DHT22;40919;43.236;21.590;2023-05-07T23:50:39;410.50;2355.20
55016;DHT22;40919;43.236;21.590;2023-05-07T23:53:07;410.50;2355.20
55016;DHT22;40919;43.236;21.590;2023-05-07T23:55:35;410.40;2355.20
55016;DHT22;40919;43.236;21.590;2023-05-07T23:58:01;410.00;2355.20
